createdAt,value
2022-09-13T00:01:10.926Z,13.20
2022-09-13T00:03:37.632Z,13.20
2022-09-13T00:06:16.537Z,13.10
2022-09-13T00:08:43.545Z,13.20
2022-09-13T00:11:22.610Z,12.90
2022-09-13T00:13:49.510Z,12.60
2022-09-13T00:16:18.270Z,12.50
2022-09-13T00:18:45.242Z,12.40
2022-09-13T00:21:18.128Z,12.40
2022-09-13T00:23:46.723Z,12.50
2022-09-13T00:26:16.062Z,12.60
2022-09-13T00:28:42.950Z,12.60
2022-09-13T00:31:09.912Z,12.50
2022-09-13T00:33:37.233Z,12.50
2022-09-13T00:36:09.313Z,12.50
2022-09-13T00:38:37.653Z,12.60
2022-09-13T00:41:06.481Z,12.50
2022-09-13T00:43:54.840Z,12.50
2022-09-13T00:46:42.445Z,12.40
2022-09-13T00:49:20.899Z,12.40
2022-09-13T00:51:52.892Z,12.30
2022-09-13T00:54:24.140Z,12.30
2022-09-13T00:56:55.219Z,12.30
2022-09-13T00:59:28.514Z,12.40
2022-09-13T01:01:57.079Z,12.30
2022-09-13T01:04:27.449Z,12.40
2022-09-13T01:06:58.481Z,12.30
2022-09-13T01:09:28.449Z,12.30
2022-09-13T01:12:10.186Z,12.30
2022-09-13T01:14:37.527Z,12.30
2022-09-13T01:17:04.737Z,12.30
2022-09-13T01:19:31.917Z,12.20
2022-09-13T01:22:29.571Z,12.20
2022-09-13T01:25:14.974Z,12.20
2022-09-13T01:28:14.355Z,12.20
2022-09-13T01:30:59.064Z,12.20
2022-09-13T01:34:10.532Z,12.20
2022-09-13T01:36:54.028Z,12.30
2022-09-13T01:39:42.435Z,12.30
2022-09-13T01:42:21.302Z,12.40
2022-09-13T01:44:59.908Z,12.40
2022-09-13T01:47:31.762Z,12.30
2022-09-13T01:50:01.142Z,12.30
2022-09-13T01:52:38.325Z,12.30
2022-09-13T01:55:27.262Z,12.30
2022-09-13T01:57:56.949Z,12.30
2022-09-13T02:00:23.691Z,12.20
2022-09-13T02:02:53.534Z,12.20
2022-09-13T02:05:27.473Z,12.20
2022-09-13T02:07:59.213Z,12.30
2022-09-13T02:10:38.346Z,12.30
2022-09-13T02:13:08.502Z,12.30
2022-09-13T02:15:41.209Z,12.40
2022-09-13T02:18:18.195Z,12.30
2022-09-13T02:20:49.300Z,12.40
2022-09-13T02:23:30.147Z,12.40
2022-09-13T02:25:59.861Z,12.40
2022-09-13T02:28:38.175Z,12.40
2022-09-13T02:31:09.040Z,12.40
2022-09-13T02:33:46.191Z,12.30
2022-09-13T02:36:23.082Z,12.30
2022-09-13T02:39:03.986Z,12.20
2022-09-13T02:41:43.910Z,12.00
2022-09-13T02:44:34.253Z,12.00
2022-09-13T02:47:15.626Z,12.00
2022-09-13T02:50:09.941Z,12.00
2022-09-13T02:53:01.007Z,12.00
2022-09-13T02:55:56.996Z,12.00
2022-09-13T02:58:46.690Z,12.00
2022-09-13T03:01:15.115Z,12.10
2022-09-13T03:03:42.340Z,12.10
2022-09-13T03:06:09.218Z,12.20
2022-09-13T03:08:37.261Z,12.10
2022-09-13T03:11:18.510Z,12.10
2022-09-13T03:14:03.917Z,11.90
2022-09-13T03:16:49.109Z,11.90
2022-09-13T03:19:40.278Z,11.90
2022-09-13T03:22:25.907Z,11.90
2022-09-13T03:25:40.126Z,11.90
2022-09-13T03:28:22.095Z,11.80
2022-09-13T03:31:01.423Z,11.70
2022-09-13T03:33:54.347Z,11.70
2022-09-13T03:36:36.411Z,11.80
2022-09-13T03:39:27.143Z,11.70
2022-09-13T03:42:00.034Z,11.70
2022-09-13T03:44:28.753Z,11.70
2022-09-13T03:46:58.794Z,11.70
2022-09-13T03:49:27.618Z,11.60
2022-09-13T03:51:55.102Z,11.40
2022-09-13T03:54:25.718Z,11.40
2022-09-13T03:57:14.490Z,11.40
2022-09-13T03:59:45.823Z,11.40
2022-09-13T04:02:13.065Z,11.50
2022-09-13T04:04:41.368Z,11.50
2022-09-13T04:07:09.093Z,11.50
2022-09-13T04:09:35.751Z,11.40
2022-09-13T04:12:02.923Z,11.50
2022-09-13T04:14:29.778Z,11.50
2022-09-13T04:16:57.885Z,11.40
2022-09-13T04:19:25.513Z,11.40
2022-09-13T04:21:54.063Z,11.30
2022-09-13T04:24:20.730Z,11.20
2022-09-13T04:26:51.315Z,11.20
2022-09-13T04:29:18.283Z,11.10
2022-09-13T04:31:49.753Z,11.00
2022-09-13T04:34:18.489Z,11.00
2022-09-13T04:36:46.173Z,11.00
2022-09-13T04:39:15.613Z,10.90
2022-09-13T04:41:45.974Z,11.00
2022-09-13T04:44:12.654Z,11.00
2022-09-13T04:46:39.270Z,11.00
2022-09-13T04:49:05.914Z,11.10
2022-09-13T04:51:32.525Z,11.10
2022-09-13T04:54:00.305Z,11.10
2022-09-13T04:56:27.371Z,11.20
2022-09-13T04:58:55.500Z,11.30
2022-09-13T05:01:27.525Z,11.30
2022-09-13T05:03:54.828Z,11.30
2022-09-13T05:06:22.738Z,11.30
2022-09-13T05:08:56.042Z,11.30
2022-09-13T05:11:24.106Z,11.30
2022-09-13T05:13:55.319Z,11.40
2022-09-13T05:16:27.715Z,11.40
2022-09-13T05:18:55.658Z,11.50
2022-09-13T05:21:22.445Z,11.60
2022-09-13T05:23:50.513Z,11.60
2022-09-13T05:26:18.287Z,11.70
2022-09-13T05:28:44.968Z,11.70
2022-09-13T05:31:28.185Z,11.90
2022-09-13T05:33:58.999Z,12.00
2022-09-13T05:36:26.561Z,12.20
2022-09-13T05:39:06.815Z,12.30
2022-09-13T05:41:41.165Z,12.40
2022-09-13T05:44:13.315Z,12.50
2022-09-13T05:46:41.159Z,12.40
2022-09-13T05:49:07.851Z,12.60
2022-09-13T05:51:34.498Z,12.70
2022-09-13T05:54:01.143Z,12.90
2022-09-13T05:56:30.003Z,13.20
2022-09-13T05:58:56.942Z,13.40
2022-09-13T06:01:26.019Z,13.50
2022-09-13T06:03:55.240Z,13.60
2022-09-13T06:06:23.919Z,13.80
2022-09-13T06:08:57.567Z,14.00
2022-09-13T06:11:26.234Z,14.20
2022-09-13T06:13:53.213Z,14.30
2022-09-13T06:16:20.126Z,14.40
2022-09-13T06:18:46.832Z,14.60
2022-09-13T06:21:19.449Z,14.90
2022-09-13T06:23:51.725Z,15.10
2022-09-13T06:26:21.528Z,15.30
2022-09-13T06:28:57.851Z,15.40
2022-09-13T06:31:27.195Z,15.70
2022-09-13T06:34:00.176Z,15.90
2022-09-13T06:36:26.995Z,16.20
2022-09-13T06:38:53.611Z,16.40
2022-09-13T06:41:23.280Z,16.50
2022-09-13T06:43:55.965Z,16.50
2022-09-13T06:46:25.282Z,16.50
2022-09-13T06:48:52.883Z,16.50
2022-09-13T06:51:24.415Z,16.60
2022-09-13T06:53:52.408Z,16.70
2022-09-13T06:56:22.322Z,16.70
2022-09-13T06:58:51.795Z,16.80
2022-09-13T07:01:20.877Z,17.10
2022-09-13T07:03:59.715Z,17.20
2022-09-13T07:06:29.519Z,17.30
2022-09-13T07:08:57.949Z,17.60
2022-09-13T07:11:28.844Z,17.90
2022-09-13T07:13:56.882Z,18.20
2022-09-13T07:16:26.909Z,18.60
2022-09-13T07:18:55.494Z,18.80
2022-09-13T07:21:23.341Z,19.10
2022-09-13T07:23:50.838Z,19.30
2022-09-13T07:26:17.638Z,19.60
2022-09-13T07:28:46.383Z,20.20
2022-09-13T07:31:17.544Z,20.10
2022-09-13T07:33:45.427Z,20.00
2022-09-13T07:36:13.197Z,20.20
2022-09-13T07:38:46.454Z,20.50
2022-09-13T07:41:15.873Z,20.90
2022-09-13T07:43:42.919Z,21.10
2022-09-13T07:46:15.477Z,21.20
2022-09-13T07:48:44.119Z,21.50
2022-09-13T07:51:14.048Z,21.60
2022-09-13T07:53:42.243Z,21.90
2022-09-13T07:56:14.821Z,22.00
2022-09-13T07:58:43.756Z,22.00
2022-09-13T08:01:17.955Z,22.00
2022-09-13T08:03:45.546Z,22.20
2022-09-13T08:06:12.414Z,22.10
2022-09-13T08:08:39.093Z,21.90
2022-09-13T08:11:07.339Z,22.30
2022-09-13T08:13:34.556Z,22.60
2022-09-13T08:16:03.088Z,23.10
2022-09-13T08:18:29.784Z,23.20
2022-09-13T08:21:00.956Z,23.30
2022-09-13T08:23:28.385Z,23.30
2022-09-13T08:25:55.036Z,23.50
2022-09-13T08:28:26.858Z,23.60
2022-09-13T08:30:54.580Z,23.50
2022-09-13T08:33:21.447Z,23.60
2022-09-13T08:35:52.625Z,23.40
2022-09-13T08:38:20.093Z,23.30
2022-09-13T08:40:59.961Z,23.30
2022-09-13T08:43:50.858Z,23.30
2022-09-13T08:46:27.646Z,23.10
2022-09-13T08:49:00.516Z,23.10
2022-09-13T08:51:37.608Z,23.10
2022-09-13T08:54:04.971Z,23.10
2022-09-13T08:56:44.800Z,23.10
2022-09-13T08:59:33.110Z,22.70
2022-09-13T09:02:13.344Z,22.60
2022-09-13T09:05:04.352Z,22.80
2022-09-13T09:07:35.160Z,23.00
2022-09-13T09:10:14.060Z,23.40
2022-09-13T09:12:48.351Z,23.80
2022-09-13T09:15:17.734Z,23.90
2022-09-13T09:18:00.265Z,24.10
2022-09-13T09:20:34.248Z,24.20
2022-09-13T09:23:07.438Z,24.30
2022-09-13T09:25:35.268Z,24.30
2022-09-13T09:28:02.846Z,24.20
2022-09-13T09:30:41.388Z,24.20
2022-09-13T09:33:30.364Z,24.40
2022-09-13T09:36:11.380Z,24.60
2022-09-13T09:38:43.803Z,24.80
2022-09-13T09:41:16.180Z,25.10
2022-09-13T09:44:01.478Z,25.40
2022-09-13T09:46:32.421Z,25.30
2022-09-13T09:49:45.477Z,25.00
2022-09-13T09:52:16.372Z,24.50
2022-09-13T09:54:43.035Z,24.40
2022-09-13T09:57:09.918Z,24.60
2022-09-13T09:59:37.201Z,24.80
2022-09-13T10:02:17.463Z,24.70
2022-09-13T10:04:59.260Z,24.80
2022-09-13T10:07:28.840Z,24.90
2022-09-13T10:10:27.737Z,24.70
2022-09-13T10:12:56.863Z,24.80
2022-09-13T10:15:27.562Z,25.10
2022-09-13T10:18:42.406Z,25.30
2022-09-13T10:21:18.900Z,25.40
2022-09-13T10:23:53.246Z,25.30
2022-09-13T10:26:25.640Z,25.40
2022-09-13T10:28:52.249Z,25.40
2022-09-13T10:31:21.297Z,25.70
2022-09-13T10:33:50.752Z,25.70
2022-09-13T10:36:48.262Z,25.70
2022-09-13T10:39:18.015Z,25.50
2022-09-13T10:42:09.386Z,25.50
2022-09-13T10:44:46.432Z,25.50
2022-09-13T10:47:21.945Z,25.60
2022-09-13T10:49:52.972Z,25.80
2022-09-13T10:52:31.291Z,26.10
2022-09-13T10:55:18.976Z,26.20
2022-09-13T10:57:46.303Z,26.20
2022-09-13T11:00:17.229Z,26.20
2022-09-13T11:02:56.013Z,26.00
2022-09-13T11:05:41.383Z,26.10
2022-09-13T11:08:37.974Z,26.20
2022-09-13T11:11:33.828Z,26.40
2022-09-13T11:14:19.093Z,26.80
2022-09-13T11:17:07.391Z,27.20
2022-09-13T11:19:57.050Z,27.50
2022-09-13T11:22:30.211Z,27.50
2022-09-13T11:24:56.791Z,27.70
2022-09-13T11:27:43.375Z,27.70
2022-09-13T11:30:12.839Z,27.60
2022-09-13T11:33:03.462Z,27.50
2022-09-13T11:35:46.704Z,27.30
2022-09-13T11:38:36.165Z,27.00
2022-09-13T11:41:31.292Z,26.90
2022-09-13T11:44:18.937Z,26.70
2022-09-13T11:46:52.018Z,27.00
2022-09-13T11:49:43.797Z,27.00
2022-09-13T11:52:46.441Z,27.20
2022-09-13T11:55:25.775Z,27.10
2022-09-13T11:58:00.057Z,26.90
2022-09-13T12:00:44.517Z,26.70
2022-09-13T12:03:11.329Z,26.50
2022-09-13T12:05:54.616Z,26.20
2022-09-13T12:08:36.657Z,26.20
2022-09-13T12:11:12.907Z,26.30
2022-09-13T12:13:53.877Z,26.50
2022-09-13T12:16:31.027Z,26.50
2022-09-13T12:19:13.500Z,26.60
2022-09-13T12:21:41.963Z,26.30
2022-09-13T12:24:16.855Z,26.00
2022-09-13T12:27:11.269Z,25.90
2022-09-13T12:29:46.116Z,25.90
2022-09-13T12:32:14.543Z,25.90
2022-09-13T12:34:50.960Z,26.10
2022-09-13T12:37:28.127Z,26.40
2022-09-13T12:40:04.275Z,26.70
2022-09-13T12:42:42.672Z,27.10
2022-09-13T12:45:42.623Z,27.50
2022-09-13T12:48:28.166Z,27.00
2022-09-13T12:50:57.758Z,27.00
2022-09-13T12:53:56.878Z,27.20
2022-09-13T12:56:35.384Z,27.60
2022-09-13T12:59:20.879Z,28.00
2022-09-13T13:01:50.413Z,28.40
2022-09-13T13:04:27.017Z,28.40
2022-09-13T13:07:04.573Z,28.30
2022-09-13T13:09:44.487Z,28.00
2022-09-13T13:12:35.840Z,28.00
2022-09-13T13:15:27.245Z,28.50
2022-09-13T13:17:55.158Z,28.70
2022-09-13T13:20:43.354Z,28.80
2022-09-13T13:23:23.678Z,28.80
2022-09-13T13:26:20.766Z,28.50
2022-09-13T13:28:47.705Z,28.10
2022-09-13T13:31:35.422Z,28.60
2022-09-13T13:34:08.382Z,28.90
2022-09-13T13:36:41.181Z,28.50
2022-09-13T13:39:33.680Z,28.30
2022-09-13T13:42:24.580Z,28.70
2022-09-13T13:45:04.078Z,29.00
2022-09-13T13:47:31.386Z,29.30
2022-09-13T13:50:04.006Z,28.50
2022-09-13T13:52:47.058Z,28.40
2022-09-13T13:55:31.426Z,28.70
2022-09-13T13:58:05.671Z,28.90
2022-09-13T14:00:34.815Z,28.70
2022-09-13T14:03:28.845Z,28.60
2022-09-13T14:06:19.386Z,28.90
2022-09-13T14:08:54.850Z,29.00
2022-09-13T14:11:56.755Z,29.10
2022-09-13T14:14:41.362Z,29.40
2022-09-13T14:17:17.025Z,29.70
2022-09-13T14:19:56.541Z,29.70
2022-09-13T14:22:28.452Z,29.10
2022-09-13T14:24:58.843Z,28.30
2022-09-13T14:27:26.579Z,28.00
2022-09-13T14:29:56.239Z,27.50
2022-09-13T14:32:36.274Z,27.40
2022-09-13T14:35:08.107Z,27.10
2022-09-13T14:37:37.998Z,26.90
2022-09-13T14:40:20.346Z,26.80
2022-09-13T14:42:49.055Z,27.00
2022-09-13T14:45:30.979Z,26.90
2022-09-13T14:48:37.342Z,26.90
2022-09-13T14:51:18.415Z,26.80
2022-09-13T14:53:48.781Z,26.80
2022-09-13T14:56:31.870Z,26.90
2022-09-13T14:59:02.265Z,26.80
2022-09-13T15:01:39.302Z,26.60
2022-09-13T15:04:07.147Z,26.50
2022-09-13T15:06:38.916Z,26.30
2022-09-13T15:09:14.077Z,26.20
2022-09-13T15:11:53.475Z,26.10
2022-09-13T15:14:37.330Z,26.20
2022-09-13T15:17:10.868Z,26.30
2022-09-13T15:19:39.017Z,26.60
2022-09-13T15:22:14.934Z,26.70
2022-09-13T15:24:54.153Z,26.60
2022-09-13T15:27:28.223Z,26.40
2022-09-13T15:29:57.796Z,26.00
2022-09-13T15:32:42.912Z,25.70
2022-09-13T15:35:22.438Z,25.60
2022-09-13T15:37:59.852Z,25.50
2022-09-13T15:40:29.955Z,25.40
2022-09-13T15:42:56.759Z,25.30
2022-09-13T15:45:23.729Z,25.20
2022-09-13T15:47:52.499Z,25.30
2022-09-13T15:50:30.738Z,25.30
2022-09-13T15:53:01.186Z,25.40
2022-09-13T15:55:28.806Z,25.50
2022-09-13T15:57:55.742Z,25.50
2022-09-13T16:00:25.514Z,25.50
2022-09-13T16:02:52.853Z,25.40
2022-09-13T16:05:19.708Z,25.20
2022-09-13T16:07:46.613Z,25.10
2022-09-13T16:10:23.618Z,25.20
2022-09-13T16:12:51.409Z,25.00
2022-09-13T16:15:18.819Z,24.90
2022-09-13T16:17:45.660Z,24.80
2022-09-13T16:20:14.651Z,24.60
2022-09-13T16:22:41.466Z,24.50
2022-09-13T16:25:10.033Z,24.40
2022-09-13T16:27:37.271Z,24.20
2022-09-13T16:30:04.637Z,24.10
2022-09-13T16:32:31.581Z,24.00
2022-09-13T16:34:58.409Z,23.90
2022-09-13T16:37:25.133Z,23.90
2022-09-13T16:39:52.260Z,23.80
2022-09-13T16:42:19.944Z,23.70
2022-09-13T16:44:46.610Z,23.70
2022-09-13T16:47:13.644Z,23.60
2022-09-13T16:49:40.334Z,23.60
2022-09-13T16:52:07.270Z,23.60
2022-09-13T16:54:35.039Z,23.50
2022-09-13T16:57:06.337Z,23.40
2022-09-13T16:59:33.660Z,23.30
2022-09-13T17:02:00.617Z,23.30
2022-09-13T17:04:27.406Z,23.20
2022-09-13T17:06:54.109Z,23.10
2022-09-13T17:09:22.496Z,23.00
2022-09-13T17:11:49.782Z,23.00
2022-09-13T17:14:17.711Z,22.90
2022-09-13T17:16:48.537Z,22.80
2022-09-13T17:19:19.808Z,22.70
2022-09-13T17:21:47.134Z,22.60
2022-09-13T17:24:14.028Z,22.50
2022-09-13T17:26:44.372Z,22.40
2022-09-13T17:29:14.757Z,22.40
2022-09-13T17:31:43.429Z,22.30
2022-09-13T17:34:11.308Z,22.20
2022-09-13T17:36:39.730Z,22.10
2022-09-13T17:39:07.136Z,22.00
2022-09-13T17:41:34.179Z,21.90
2022-09-13T17:44:01.122Z,21.90
2022-09-13T17:46:30.049Z,21.80
2022-09-13T17:48:58.847Z,21.80
2022-09-13T17:51:29.224Z,21.70
2022-09-13T17:54:00.878Z,21.60
2022-09-13T17:56:31.975Z,21.60
2022-09-13T17:59:09.795Z,21.60
2022-09-13T18:01:39.537Z,21.50
2022-09-13T18:04:07.812Z,21.40
2022-09-13T18:06:36.065Z,21.30
2022-09-13T18:09:02.843Z,21.20
2022-09-13T18:11:29.995Z,21.20
2022-09-13T18:13:57.038Z,21.20
2022-09-13T18:16:26.670Z,21.20
2022-09-13T18:18:53.710Z,21.30
2022-09-13T18:21:23.560Z,21.20
2022-09-13T18:23:57.954Z,21.10
2022-09-13T18:26:25.958Z,21.10
2022-09-13T18:28:57.880Z,21.00
2022-09-13T18:31:25.434Z,20.90
2022-09-13T18:34:09.576Z,20.90
2022-09-13T18:36:37.323Z,20.80
2022-09-13T18:39:05.883Z,20.80
2022-09-13T18:41:35.267Z,20.70
2022-09-13T18:44:02.579Z,20.70
2022-09-13T18:46:31.697Z,20.70
2022-09-13T18:48:59.054Z,20.70
2022-09-13T18:51:37.602Z,20.70
2022-09-13T18:54:05.838Z,20.60
2022-09-13T18:56:33.199Z,20.70
2022-09-13T18:59:01.701Z,20.60
2022-09-13T19:01:31.400Z,20.70
2022-09-13T19:04:07.650Z,20.60
2022-09-13T19:06:41.371Z,20.60
2022-09-13T19:09:09.235Z,20.50
2022-09-13T19:11:48.055Z,20.40
2022-09-13T19:14:17.757Z,20.40
2022-09-13T19:16:45.063Z,20.50
2022-09-13T19:19:11.909Z,20.50
2022-09-13T19:21:38.594Z,20.50
2022-09-13T19:24:10.756Z,20.40
2022-09-13T19:26:40.248Z,20.30
2022-09-13T19:29:11.075Z,20.20
2022-09-13T19:31:40.717Z,20.10
2022-09-13T19:34:08.350Z,20.20
2022-09-13T19:36:37.173Z,20.20
2022-09-13T19:39:06.237Z,20.10
2022-09-13T19:41:33.767Z,20.10
2022-09-13T19:44:01.935Z,20.10
2022-09-13T19:46:31.987Z,20.20
2022-09-13T19:49:00.117Z,20.20
2022-09-13T19:51:29.619Z,20.10
2022-09-13T19:53:58.635Z,20.10
2022-09-13T19:56:33.376Z,20.00
2022-09-13T19:59:01.017Z,20.00
2022-09-13T20:01:34.217Z,19.90
2022-09-13T20:04:04.286Z,19.90
2022-09-13T20:06:39.623Z,19.80
2022-09-13T20:09:08.718Z,19.80
2022-09-13T20:11:42.195Z,19.80
2022-09-13T20:14:09.721Z,19.80
2022-09-13T20:16:39.374Z,19.80
2022-09-13T20:19:23.892Z,19.80
2022-09-13T20:21:55.567Z,19.70
2022-09-13T20:24:22.706Z,19.70
2022-09-13T20:26:52.410Z,19.60
2022-09-13T20:29:19.189Z,19.60
2022-09-13T20:31:46.058Z,19.60
2022-09-13T20:34:15.067Z,19.50
2022-09-13T20:36:44.208Z,19.40
2022-09-13T20:39:11.482Z,19.40
2022-09-13T20:41:38.431Z,19.40
2022-09-13T20:44:05.554Z,19.30
2022-09-13T20:46:32.471Z,19.20
2022-09-13T20:48:59.509Z,19.20
2022-09-13T20:51:27.594Z,19.10
2022-09-13T20:54:00.542Z,19.10
2022-09-13T20:56:28.922Z,19.10
2022-09-13T20:58:58.310Z,19.10
2022-09-13T21:01:27.475Z,19.20
2022-09-13T21:03:55.765Z,19.20
2022-09-13T21:06:24.625Z,19.10
2022-09-13T21:08:52.119Z,19.10
2022-09-13T21:11:22.115Z,19.00
2022-09-13T21:13:55.008Z,19.00
2022-09-13T21:16:24.749Z,18.90
2022-09-13T21:18:53.089Z,18.80
2022-09-13T21:21:25.226Z,18.80
2022-09-13T21:23:52.866Z,18.90
2022-09-13T21:26:22.849Z,18.90
2022-09-13T21:28:50.087Z,19.00
2022-09-13T21:31:25.887Z,19.00
2022-09-13T21:33:56.750Z,19.00
2022-09-13T21:36:23.951Z,19.00
2022-09-13T21:38:51.545Z,19.00
2022-09-13T21:41:18.714Z,19.00
2022-09-13T21:43:45.524Z,19.00
2022-09-13T21:46:16.842Z,19.00
2022-09-13T21:48:45.891Z,18.90
2022-09-13T21:51:23.094Z,18.90
2022-09-13T21:53:57.556Z,18.90
2022-09-13T21:56:26.656Z,18.80
2022-09-13T21:58:58.216Z,18.80
2022-09-13T22:01:27.604Z,18.70
2022-09-13T22:03:54.497Z,18.60
2022-09-13T22:06:22.772Z,18.60
2022-09-13T22:08:53.061Z,18.60
2022-09-13T22:11:26.369Z,18.60
2022-09-13T22:13:53.806Z,18.60
2022-09-13T22:16:25.976Z,18.50
2022-09-13T22:18:55.834Z,18.60
2022-09-13T22:21:25.819Z,18.60
2022-09-13T22:23:52.907Z,18.70
2022-09-13T22:26:25.683Z,18.60
2022-09-13T22:28:53.543Z,18.50
2022-09-13T22:31:22.925Z,18.60
2022-09-13T22:33:51.172Z,18.60
2022-09-13T22:36:19.066Z,18.60
2022-09-13T22:38:47.361Z,18.70
2022-09-13T22:41:19.713Z,18.70
2022-09-13T22:43:47.104Z,18.70
2022-09-13T22:46:37.453Z,18.70
2022-09-13T22:49:05.361Z,18.60
2022-09-13T22:51:32.394Z,18.60
2022-09-13T22:54:02.483Z,18.60
2022-09-13T22:56:34.811Z,18.50
2022-09-13T22:59:12.322Z,18.50
2022-09-13T23:01:39.196Z,18.60
2022-09-13T23:04:07.072Z,18.70
2022-09-13T23:06:34.700Z,18.70
2022-09-13T23:09:03.771Z,18.70
2022-09-13T23:11:38.755Z,18.70
2022-09-13T23:14:08.329Z,18.60
2022-09-13T23:16:40.564Z,18.60
2022-09-13T23:19:07.642Z,18.60
2022-09-13T23:21:36.341Z,18.70
2022-09-13T23:24:05.532Z,18.70
2022-09-13T23:26:34.015Z,18.80
2022-09-13T23:29:02.169Z,18.80
2022-09-13T23:31:38.731Z,18.70
2022-09-13T23:34:07.841Z,18.70
2022-09-13T23:36:37.594Z,18.60
2022-09-13T23:39:06.477Z,18.60
2022-09-13T23:41:33.833Z,18.60
2022-09-13T23:44:01.927Z,18.60
2022-09-13T23:46:29.135Z,18.50
2022-09-13T23:48:55.989Z,18.50
2022-09-13T23:51:24.269Z,18.40
2022-09-13T23:53:53.010Z,18.30
2022-09-13T23:56:20.075Z,18.30
2022-09-13T23:58:46.906Z,18.40
